| time (UTC) | temp F | wind direction | speed MPH | gust MPH | rain 1hr in | rain 24hr in | rain mn in | humidity % | barometer mb |
| 20260510204017 | 60 | 307 | 3.0 | 6.0 | 0.00 | 0.13 | 0.01 | 51 | 1018.2 |
| 20260510203017 | 61 | 328 | 4.0 | 11.0 | 0.00 | 0.13 | 0.01 | 50 | 1018.0 |
| 20260510202017 | 59 | 34 | 2.0 | 5.0 | 0.00 | 0.13 | 0.01 | 51 | 1018.2 |
| 20260510201037 | 60 | 353 | 3.0 | 4.0 | 0.00 | 0.13 | 0.01 | 49 | 1018.3 |
| 20260510200017 | 60 | 358 | 4.0 | 10.0 | 0.00 | 0.13 | 0.01 | 49 | 1018.4 |
| 20260510195018 | 60 | 316 | 5.0 | 9.0 | 0.00 | 0.13 | 0.01 | 49 | 1018.4 |
| 20260510194018 | 60 | 52 | 2.0 | 7.0 | 0.00 | 0.13 | 0.01 | 49 | 1018.4 |
| 20260510193018 | 59 | 319 | 3.0 | 9.0 | 0.00 | 0.13 | 0.01 | 51 | 1018.5 |
| 20260510192018 | 59 | 352 | 3.0 | 7.0 | 0.00 | 0.13 | 0.01 | 50 | 1018.5 |
| 20260510191016 | 60 | 343 | 3.0 | 7.0 | 0.00 | 0.13 | 0.01 | 50 | 1018.4 |
| 20260510190035 | 59 | 289 | 5.0 | 9.0 | 0.00 | 0.13 | 0.01 | 50 | 1018.2 |
| 20260510185016 | 59 | 2 | 3.0 | 7.0 | 0.00 | 0.13 | 0.01 | 52 | 1018.2 |
| 20260510184036 | 59 | 23 | 3.0 | 10.0 | 0.00 | 0.13 | 0.01 | 51 | 1018.3 |
| 20260510183016 | 59 | 332 | 5.0 | 13.0 | 0.00 | 0.13 | 0.01 | 51 | 1018.3 |
| 20260510182056 | 59 | 323 | 5.0 | 8.0 | 0.00 | 0.13 | 0.01 | 52 | 1018.2 |
| 20260510181017 | 59 | 328 | 5.0 | 10.0 | 0.00 | 0.13 | 0.01 | 54 | 1018.1 |
| 20260510180016 | 59 | 349 | 4.0 | 8.0 | 0.00 | 0.13 | 0.01 | 52 | 1017.9 |
| 20260510175037 | 58 | 329 | 5.0 | 8.0 | 0.00 | 0.13 | 0.01 | 53 | 1017.7 |
| 20260510174017 | 58 | 314 | 3.0 | 8.0 | 0.00 | 0.13 | 0.01 | 53 | 1017.9 |
| 20260510173017 | 58 | 349 | 4.0 | 9.0 | 0.00 | 0.13 | 0.01 | 55 | 1018.0 |
| 20260510172017 | 58 | 29 | 4.0 | 10.0 | 0.00 | 0.13 | 0.01 | 56 | 1018.1 |
| 20260510171018 | 58 | 350 | 4.0 | 8.0 | 0.00 | 0.13 | 0.01 | 55 | 1018.1 |
| 20260510170018 | 58 | 42 | 6.0 | 9.0 | 0.00 | 0.13 | 0.01 | 56 | 1018.3 |
| 20260510165038 | 57 | 21 | 4.0 | 8.0 | 0.00 | 0.13 | 0.01 | 57 | 1018.3 |
| 20260510164018 | 57 | 19 | 4.0 | 8.0 | 0.00 | 0.13 | 0.01 | 58 | 1018.2 |
| 20260510163038 | 57 | 23 | 4.0 | 9.0 | 0.00 | 0.13 | 0.01 | 58 | 1018.1 |
| 20260510162100 | 57 | 24 | 4.0 | 9.0 | 0.00 | 0.13 | 0.01 | 61 | 1018.1 |
| 20260510161018 | 56 | 18 | 5.0 | 10.0 | 0.00 | 0.13 | 0.01 | 61 | 1018.0 |
| 20260510160016 | 56 | 26 | 6.0 | 12.0 | 0.00 | 0.13 | 0.01 | 61 | 1018.0 |
| 20260510155016 | 55 | 29 | 5.0 | 10.0 | 0.00 | 0.13 | 0.01 | 61 | 1017.9 |
| 20260510154016 | 55 | 14 | 6.0 | 11.0 | 0.00 | 0.13 | 0.01 | 62 | 1017.8 |
| 20260510153038 | 55 | 17 | 5.0 | 10.0 | 0.00 | 0.13 | 0.01 | 65 | 1017.6 |
| 20260510152016 | 55 | 21 | 7.0 | 11.0 | 0.00 | 0.13 | 0.01 | 66 | 1017.5 |
| 20260510151017 | 55 | 51 | 5.0 | 9.0 | 0.00 | 0.13 | 0.01 | 67 | 1017.3 |
| 20260510150037 | 54 | 39 | 5.0 | 9.0 | 0.00 | 0.13 | 0.01 | 67 | 1017.2 |
| 20260510145017 | 54 | 28 | 4.0 | 8.0 | 0.00 | 0.13 | 0.01 | 69 | 1017.2 |
| 20260510144017 | 53 | 19 | 6.0 | 10.0 | 0.00 | 0.13 | 0.01 | 70 | 1017.0 |
| 20260510143017 | 53 | 33 | 7.0 | 11.0 | 0.00 | 0.13 | 0.01 | 70 | 1016.6 |
| 20260510142017 | 53 | 34 | 7.0 | 14.0 | 0.00 | 0.13 | 0.01 | 71 | 1016.6 |
| 20260510141017 | 53 | 35 | 5.0 | 9.0 | 0.00 | 0.13 | 0.01 | 73 | 1016.4 |
| 20260510140018 | 52 | 40 | 6.0 | 12.0 | 0.00 | 0.13 | 0.01 | 74 | 1016.3 |
| 20260510135018 | 51 | 36 | 7.0 | 12.0 | 0.00 | 0.13 | 0.01 | 75 | 1016.3 |
| 20260510134058 | 51 | 17 | 5.0 | 9.0 | 0.00 | 0.13 | 0.01 | 78 | 1016.4 |
| 20260510133018 | 51 | 19 | 5.0 | 10.0 | 0.00 | 0.13 | 0.01 | 78 | 1016.3 |
| 20260510132018 | 50 | 27 | 5.0 | 7.0 | 0.00 | 0.13 | 0.01 | 78 | 1016.3 |
| 20260510131015 | 50 | 13 | 4.0 | 8.0 | 0.00 | 0.13 | 0.01 | 78 | 1016.2 |
| 20260510130015 | 50 | 24 | 4.0 | 8.0 | 0.00 | 0.13 | 0.01 | 78 | 1016.1 |
| 20260510125016 | 50 | 11 | 3.0 | 7.0 | 0.00 | 0.13 | 0.01 | 77 | 1016.0 |
| 20260510124016 | 50 | 8 | 3.0 | 6.0 | 0.00 | 0.13 | 0.01 | 77 | 1015.9 |
| 20260510123016 | 50 | 10 | 3.0 | 6.0 | 0.00 | 0.13 | 0.01 | 77 | 1015.6 |
| 20260510122016 | 50 | 16 | 3.0 | 8.0 | 0.00 | 0.13 | 0.01 | 76 | 1015.4 |
| 20260510121017 | 50 | 7 | 2.0 | 6.0 | 0.00 | 0.13 | 0.01 | 77 | 1015.2 |
| 20260510120017 | 49 | 358 | 1.0 | 3.0 | 0.00 | 0.13 | 0.01 | 77 | 1015.3 |
| 20260510115017 | 49 | 20 | 2.0 | 4.0 | 0.00 | 0.13 | 0.01 | 77 | 1015.0 |
| 20260510114037 | 49 | 15 | 1.0 | 2.0 | 0.00 | 0.13 | 0.01 | 77 | 1014.6 |
| 20260510113037 | 49 | 8 | 2.0 | 3.0 | 0.00 | 0.13 | 0.01 | 78 | 1014.4 |
| 20260510112018 | 49 | 21 | 1.0 | 3.0 | 0.00 | 0.13 | 0.01 | 77 | 1014.4 |
| 20260510111018 | 49 | 340 | 2.0 | 4.0 | 0.00 | 0.13 | 0.01 | 78 | 1014.1 |
| 20260510110018 | 49 | 18 | 2.0 | 4.0 | 0.00 | 0.13 | 0.01 | 78 | 1013.7 |
| 20260510105038 | 49 | 0 | 1.0 | 3.0 | 0.00 | 0.13 | 0.01 | 77 | 1013.8 |
| 20260510104018 | 49 | 347 | 1.0 | 3.0 | 0.00 | 0.13 | 0.01 | 77 | 1013.7 |
| 20260510103015 | 49 | 12 | 2.0 | 4.0 | 0.00 | 0.13 | 0.01 | 76 | 1013.4 |
| 20260510102016 | 49 | 4 | 2.0 | 4.0 | 0.00 | 0.13 | 0.01 | 76 | 1013.3 |
| 20260510101017 | 49 | 12 | 3.0 | 5.0 | 0.00 | 0.13 | 0.01 | 76 | 1013.0 |
| 20260510100036 | 49 | 0 | 2.0 | 5.0 | 0.00 | 0.13 | 0.01 | 77 | 1012.8 |
| 20260510095016 | 49 | 10 | 3.0 | 5.0 | 0.00 | 0.13 | 0.01 | 77 | 1012.7 |
| 20260510094016 | 49 | 11 | 3.0 | 5.0 | 0.00 | 0.13 | 0.01 | 78 | 1012.5 |
| 20260510093016 | 49 | 20 | 3.0 | 6.0 | 0.00 | 0.13 | 0.01 | 78 | 1012.6 |
| 20260510092017 | 49 | 6 | 2.0 | 4.0 | 0.00 | 0.13 | 0.01 | 78 | 1012.4 |
| 20260510091016 | 49 | 4 | 3.0 | 5.0 | 0.00 | 0.13 | 0.01 | 79 | 1012.4 |
| 20260510090037 | 49 | 360 | 3.0 | 4.0 | 0.00 | 0.13 | 0.01 | 79 | 1012.2 |
| 20260510085017 | 50 | 347 | 2.0 | 4.0 | 0.00 | 0.13 | 0.01 | 80 | 1012.2 |
| 20260510084017 | 50 | 351 | 2.0 | 4.0 | 0.00 | 0.13 | 0.01 | 80 | 1012.1 |
| 20260510083017 | 50 | 338 | 2.0 | 4.0 | 0.00 | 0.13 | 0.01 | 80 | 1012.0 |
| 20260510082021 | 51 | 0 | 2.0 | 4.0 | 0.00 | 0.13 | 0.01 | 78 | 1011.8 |
| 20260510081020 | 52 | 357 | 3.0 | 5.0 | 0.00 | 0.13 | 0.01 | 78 | 1011.7 |
| 20260510080038 | 52 | 17 | 4.0 | 6.0 | 0.00 | 0.13 | 0.01 | 77 | 1011.5 |
| 20260510075038 | 52 | 24 | 4.0 | 8.0 | 0.00 | 0.13 | 0.01 | 77 | 1011.4 |
| 20260510074018 | 53 | 24 | 4.0 | 8.0 | 0.00 | 0.13 | 0.01 | 77 | 1011.2 |
| 20260510073018 | 53 | 18 | 4.0 | 7.0 | 0.00 | 0.13 | 0.01 | 78 | 1011.2 |
| 20260510072015 | 54 | 10 | 4.0 | 7.0 | 0.00 | 0.13 | 0.01 | 81 | 1011.2 |
| 20260510071016 | 54 | 11 | 3.0 | 6.0 | 0.00 | 0.13 | 0.01 | 83 | 1011.2 |
| 20260510070036 | 55 | 347 | 3.0 | 7.0 | 0.00 | 0.13 | 0.01 | 83 | 1011.0 |
| 20260510065020 | 55 | 331 | 3.0 | 7.0 | 0.00 | 0.13 | 0.01 | 83 | 1010.8 |
| 20260510064016 | 56 | 332 | 4.0 | 7.0 | 0.00 | 0.13 | 0.01 | 84 | 1010.8 |
| 20260510063016 | 56 | 310 | 2.0 | 3.0 | 0.00 | 0.13 | 0.01 | 88 | 1010.7 |
| 20260510062016 | 56 | 321 | 3.0 | 4.0 | 0.00 | 0.13 | 0.01 | 89 | 1010.6 |
| 20260510061017 | 56 | 318 | 3.0 | 6.0 | 0.00 | 0.13 | 0.01 | 89 | 1010.4 |
| 20260510060017 | 55 | 312 | 2.0 | 5.0 | 0.00 | 0.13 | 0.01 | 91 | 1010.4 |
| 20260510055017 | 54 | 353 | 1.0 | 3.0 | 0.00 | 0.13 | 0.01 | 92 | 1010.4 |
| 20260510054037 | 53 | 293 | 1.0 | 5.0 | 0.00 | 0.13 | 0.01 | 93 | 1010.3 |
| 20260510053017 | 52 | 338 | 2.0 | 4.0 | 0.00 | 0.13 | 0.01 | 94 | 1010.0 |
| 20260510052017 | 53 | 334 | 1.0 | 4.0 | 0.00 | 0.13 | 0.01 | 92 | 1009.8 |
| 20260510051018 | 54 | 10 | 1.0 | 3.0 | 0.00 | 0.14 | 0.01 | 91 | 1009.7 |
| 20260510050018 | 54 | 162 | 0.0 | 2.0 | 0.01 | 0.14 | 0.01 | 90 | 1009.6 |
| 20260510045018 | 55 | 332 | 0.0 | 2.0 | 0.01 | 0.15 | 0.01 | 89 | 1009.5 |
| 20260510044018 | 56 | 172 | 2.0 | 5.0 | 0.06 | 0.15 | 0.01 | 89 | 1009.4 |
| 20260510043015 | 56 | 178 | 2.0 | 3.0 | 0.12 | 0.15 | 0.01 | 88 | 1009.4 |
| 20260510042016 | 57 | 199 | 1.0 | 3.0 | 0.12 | 0.15 | 0.01 | 88 | 1009.5 |
| 20260510041015 | 58 | 213 | 3.0 | 7.0 | 0.11 | 0.18 | 0.01 | 87 | 1009.4 |
| 20260510040040 | 58 | 209 | 5.0 | 12.0 | 0.11 | 0.20 | 0.00 | 87 | 1009.5 |
| 20260510035016 | 57 | 233 | 4.0 | 9.0 | 0.11 | 0.24 | 0.22 | 92 | 1009.7 |
| 20260510034016 | 54 | 232 | 2.0 | 6.0 | 0.05 | 0.20 | 0.17 | 95 | 1009.4 |
| 20260510033017 | 54 | 139 | 0.0 | 2.0 | 0.00 | 0.14 | 0.11 | 95 | 1008.8 |
| 20260510032057 | 54 | 142 | 0.0 | 2.0 | 0.00 | 0.14 | 0.11 | 95 | 1008.9 |
| 20260510031037 | 54 | 141 | 1.0 | 3.0 | 0.00 | 0.15 | 0.11 | 94 | 1008.9 |
| 20260510030037 | 54 | 136 | 0.0 | 2.0 | 0.00 | 0.15 | 0.11 | 94 | 1009.0 |
| 20260510025017 | 54 | 147 | 2.0 | 3.0 | 0.00 | 0.15 | 0.11 | 94 | 1008.9 |
| 20260510024017 | 55 | 181 | 0.0 | 1.0 | 0.00 | 0.16 | 0.11 | 93 | 1009.0 |
| 20260510023017 | 55 | 173 | 1.0 | 3.0 | 0.00 | 0.17 | 0.11 | 92 | 1008.9 |
| 20260510022017 | 55 | 49 | 0.0 | 1.0 | 0.00 | 0.17 | 0.11 | 92 | 1008.9 |
| 20260510021019 | 56 | 184 | 1.0 | 2.0 | 0.01 | 0.17 | 0.11 | 91 | 1008.8 |
| 20260510020018 | 56 | 353 | 1.0 | 2.0 | 0.01 | 0.17 | 0.11 | 90 | 1008.6 |
| 20260510015018 | 56 | 12 | 0.0 | 0.0 | 0.01 | 0.17 | 0.11 | 89 | 1008.3 |
| 20260510014018 | 57 | 0.0 | 0.0 | 0.01 | 0.17 | 0.11 | 88 | 1008.1 | |
| 20260510013018 | 57 | 187 | 1.0 | 2.0 | 0.01 | 0.17 | 0.11 | 87 | 1008.0 |
| 20260510012041 | 57 | 149 | 0.0 | 2.0 | 0.00 | 0.17 | 0.11 | 86 | 1007.9 |
| 20260510011016 | 57 | 172 | 0.0 | 2.0 | 0.00 | 0.17 | 0.10 | 87 | 1007.9 |
| 20260510010016 | 57 | 150 | 1.0 | 3.0 | 0.00 | 0.17 | 0.10 | 86 | 1007.9 |
| 20260510005036 | 57 | 145 | 1.0 | 2.0 | 0.00 | 0.17 | 0.10 | 84 | 1007.7 |
| 20260510004016 | 58 | 338 | 0.0 | 2.0 | 0.00 | 0.17 | 0.10 | 82 | 1007.7 |
| 20260510003017 | 58 | 54 | 0.0 | 2.0 | 0.00 | 0.17 | 0.10 | 81 | 1007.7 |
| 20260510002017 | 59 | 29 | 1.0 | 3.0 | 0.00 | 0.17 | 0.10 | 80 | 1007.7 |
| 20260510001017 | 59 | 2 | 2.0 | 4.0 | 0.00 | 0.17 | 0.10 | 78 | 1007.6 |
| 20260510000017 | 60 | 325 | 5.0 | 9.0 | 0.00 | 0.17 | 0.10 | 78 | 1007.8 |
| 20260509235017 | 62 | 307 | 6.0 | 12.0 | 0.00 | 0.17 | 0.10 | 75 | 1007.9 |
| 20260509234017 | 67 | 307 | 9.0 | 14.0 | 0.00 | 0.17 | 0.10 | 63 | 1007.4 |
| 20260509233018 | 68 | 257 | 5.0 | 9.0 | 0.00 | 0.17 | 0.10 | 60 | 1006.7 |
| 20260509232017 | 68 | 240 | 4.0 | 10.0 | 0.00 | 0.17 | 0.10 | 60 | 1006.4 |
| 20260509231018 | 69 | 217 | 5.0 | 11.0 | 0.00 | 0.17 | 0.10 | 59 | 1006.4 |
| 20260509230018 | 69 | 228 | 4.0 | 9.0 | 0.00 | 0.17 | 0.10 | 58 | 1006.4 |
| 20260509225018 | 69 | 224 | 5.0 | 13.0 | 0.00 | 0.17 | 0.10 | 58 | 1006.3 |
| 20260509224038 | 69 | 215 | 6.0 | 13.0 | 0.00 | 0.17 | 0.10 | 58 | 1006.3 |
| 20260509223019 | 70 | 210 | 5.0 | 9.0 | 0.00 | 0.18 | 0.10 | 60 | 1006.2 |
| 20260509222016 | 71 | 214 | 6.0 | 11.0 | 0.00 | 0.18 | 0.10 | 58 | 1006.1 |
| 20260509221037 | 70 | 203 | 6.0 | 12.0 | 0.00 | 0.18 | 0.10 | 59 | 1006.1 |
| 20260509220016 | 70 | 211 | 6.0 | 13.0 | 0.00 | 0.19 | 0.10 | 60 | 1006.2 |
| 20260509215018 | 70 | 209 | 8.0 | 19.0 | 0.00 | 0.20 | 0.10 | 60 | 1006.1 |
| 20260509214036 | 70 | 206 | 9.0 | 15.0 | 0.00 | 0.21 | 0.10 | 59 | 1006.0 |
| 20260509213017 | 70 | 210 | 7.0 | 13.0 | 0.00 | 0.21 | 0.10 | 61 | 1006.1 |
| 20260509212017 | 70 | 196 | 9.0 | 14.0 | 0.00 | 0.21 | 0.10 | 61 | 1006.1 |
| 20260509211017 | 70 | 215 | 8.0 | 15.0 | 0.00 | 0.21 | 0.10 | 59 | 1006.1 |
| 20260509210019 | 70 | 195 | 10.0 | 16.0 | 0.00 | 0.21 | 0.10 | 62 | 1006.2 |
| 20260509205017 | 70 | 216 | 7.0 | 13.0 | 0.00 | 0.21 | 0.10 | 62 | 1006.3 |